createdAt,value
2022-12-31T00:00:08.798Z,7.75
2022-12-31T00:02:36.253Z,5.43
2022-12-31T00:05:04.553Z,6.50
2022-12-31T00:09:57.596Z,7.13
2022-12-31T00:12:24.850Z,8.35
2022-12-31T00:14:51.460Z,5.70
2022-12-31T00:17:18.032Z,5.82
2022-12-31T00:19:44.638Z,7.70
2022-12-31T00:22:11.205Z,6.53
2022-12-31T00:24:37.853Z,7.90
2022-12-31T00:27:04.500Z,6.95
2022-12-31T00:29:31.091Z,6.78
2022-12-31T00:31:57.702Z,9.57
2022-12-31T00:34:24.369Z,8.63
2022-12-31T00:36:51.011Z,8.25
2022-12-31T00:39:17.606Z,7.38
2022-12-31T00:41:44.308Z,7.63
2022-12-31T00:44:14.595Z,9.18
2022-12-31T00:49:07.082Z,8.32
2022-12-31T00:51:33.825Z,10.50
2022-12-31T00:54:00.551Z,9.73
2022-12-31T00:56:29.277Z,10.48
2022-12-31T00:58:56.568Z,10.52
2022-12-31T01:01:26.713Z,10.63
2022-12-31T01:03:56.325Z,11.63
2022-12-31T01:06:22.991Z,7.25
2022-12-31T01:08:50.759Z,7.25
2022-12-31T01:11:24.017Z,8.75
2022-12-31T01:16:18.665Z,7.82
2022-12-31T01:18:45.374Z,9.02
2022-12-31T01:21:13.236Z,7.55
2022-12-31T01:23:40.668Z,7.03
2022-12-31T01:26:09.478Z,7.68
2022-12-31T01:28:36.401Z,6.35
2022-12-31T01:31:08.180Z,8.07
2022-12-31T01:33:35.768Z,6.50
2022-12-31T01:36:05.183Z,6.13
2022-12-31T01:38:32.035Z,7.53
2022-12-31T01:40:58.675Z,5.57
2022-12-31T01:43:56.199Z,6.15
2022-12-31T01:46:51.381Z,7.63
2022-12-31T01:49:23.947Z,6.15
2022-12-31T01:52:09.136Z,5.88
2022-12-31T01:54:40.034Z,8.23
2022-12-31T01:57:08.196Z,7.75
2022-12-31T01:59:34.856Z,2.80
2022-12-31T02:02:01.905Z,6.20
2022-12-31T02:04:29.333Z,5.20
2022-12-31T02:07:07.929Z,4.03
2022-12-31T02:09:38.270Z,4.65
2022-12-31T02:12:06.091Z,4.35
2022-12-31T02:14:37.308Z,4.90
2022-12-31T02:17:09.754Z,4.00
2022-12-31T02:19:41.985Z,4.85
2022-12-31T02:22:39.571Z,3.65
2022-12-31T02:25:25.191Z,5.22
2022-12-31T02:28:12.004Z,4.45
2022-12-31T02:30:40.467Z,3.70
2022-12-31T02:33:32.372Z,4.00
2022-12-31T02:36:03.235Z,3.33
2022-12-31T02:38:38.365Z,3.80
2022-12-31T02:41:05.108Z,3.28
2022-12-31T02:43:31.825Z,4.20
2022-12-31T02:46:10.986Z,4.32
2022-12-31T02:48:37.789Z,4.32
2022-12-31T02:51:20.656Z,4.47
2022-12-31T02:54:05.277Z,2.83
2022-12-31T02:56:45.492Z,2.40
2022-12-31T02:59:41.790Z,2.50
2022-12-31T03:02:14.866Z,1.20
2022-12-31T03:07:22.712Z,3.75
2022-12-31T03:09:49.962Z,2.22
2022-12-31T03:12:37.503Z,2.33
2022-12-31T03:15:06.802Z,1.95
2022-12-31T03:17:34.193Z,3.72
2022-12-31T03:20:19.536Z,3.70
2022-12-31T03:22:46.157Z,2.30
2022-12-31T03:25:35.294Z,1.65
2022-12-31T03:28:04.445Z,1.02
2022-12-31T03:30:32.067Z,1.42
2022-12-31T03:32:59.294Z,0.95
2022-12-31T03:35:27.579Z,1.80
2022-12-31T03:37:54.687Z,1.48
2022-12-31T03:40:23.473Z,1.13
2022-12-31T03:42:50.196Z,0.85
2022-12-31T03:45:16.851Z,1.35
2022-12-31T03:47:43.692Z,0.95
2022-12-31T03:50:12.397Z,1.48
2022-12-31T03:52:39.368Z,1.25
2022-12-31T03:55:06.982Z,1.40
2022-12-31T03:57:33.931Z,1.15
2022-12-31T04:00:00.577Z,1.40
2022-12-31T04:02:29.186Z,1.20
2022-12-31T04:04:56.219Z,0.70
2022-12-31T04:07:23.096Z,0.52
2022-12-31T04:09:49.984Z,0.65
2022-12-31T04:12:16.657Z,0.98
2022-12-31T04:14:43.403Z,0.63
2022-12-31T04:17:10.150Z,0.57
2022-12-31T04:19:37.699Z,0.60
2022-12-31T04:22:04.790Z,0.65
2022-12-31T04:24:31.495Z,0.65
2022-12-31T04:27:03.575Z,0.63
2022-12-31T04:29:32.083Z,1.23
2022-12-31T04:31:58.731Z,0.85
2022-12-31T04:34:25.379Z,0.65
2022-12-31T04:36:51.984Z,1.55
2022-12-31T04:39:18.589Z,1.25
2022-12-31T04:41:45.187Z,1.13
2022-12-31T04:44:12.684Z,1.73
2022-12-31T04:46:39.443Z,1.00
2022-12-31T04:49:06.116Z,0.85
2022-12-31T04:51:32.899Z,0.77
2022-12-31T04:54:00.110Z,1.15
2022-12-31T04:56:28.271Z,0.75
2022-12-31T04:58:55.155Z,1.52
2022-12-31T05:01:22.744Z,1.13
2022-12-31T05:03:49.744Z,1.40
2022-12-31T05:06:22.742Z,1.98
2022-12-31T05:08:50.217Z,1.35
2022-12-31T05:11:17.754Z,1.33
2022-12-31T05:13:44.928Z,0.55
2022-12-31T05:16:11.698Z,3.35
2022-12-31T05:18:38.641Z,3.38
2022-12-31T05:21:06.421Z,2.05
2022-12-31T05:23:33.056Z,1.77
2022-12-31T05:25:59.751Z,0.57
2022-12-31T05:28:26.718Z,1.95
2022-12-31T05:30:53.539Z,2.65
2022-12-31T05:33:20.712Z,2.22
2022-12-31T05:35:47.485Z,2.30
2022-12-31T05:38:14.114Z,1.25
2022-12-31T05:40:40.709Z,2.50
2022-12-31T05:43:07.725Z,1.65
2022-12-31T05:45:34.392Z,2.10
2022-12-31T05:48:01.180Z,2.30
2022-12-31T05:50:27.860Z,1.73
2022-12-31T05:52:54.501Z,2.17
2022-12-31T05:55:21.204Z,0.80
2022-12-31T05:57:47.812Z,2.97
2022-12-31T06:00:15.025Z,1.55
2022-12-31T06:02:41.693Z,1.83
2022-12-31T06:05:08.805Z,1.10
2022-12-31T06:07:35.410Z,1.00
2022-12-31T06:10:02.036Z,0.90
2022-12-31T06:12:28.624Z,1.23
2022-12-31T06:14:55.230Z,1.45
2022-12-31T06:17:22.579Z,0.70
2022-12-31T06:19:49.197Z,1.17
2022-12-31T06:22:16.208Z,2.58
2022-12-31T06:24:42.804Z,0.93
2022-12-31T06:27:09.576Z,1.08
2022-12-31T06:29:36.329Z,0.88
2022-12-31T06:32:03.023Z,1.25
2022-12-31T06:34:29.685Z,1.33
2022-12-31T06:36:56.369Z,1.42
2022-12-31T06:39:23.047Z,1.27
2022-12-31T06:41:49.648Z,0.50
2022-12-31T06:44:16.362Z,0.77
2022-12-31T06:46:42.994Z,0.50
2022-12-31T06:49:09.716Z,0.45
2022-12-31T06:51:36.352Z,0.65
2022-12-31T06:54:02.956Z,0.55
2022-12-31T06:56:34.304Z,1.15
2022-12-31T06:59:02.981Z,1.20
2022-12-31T07:01:41.793Z,0.70
2022-12-31T07:04:45.667Z,0.70
2022-12-31T07:07:22.125Z,2.10
2022-12-31T07:09:58.851Z,0.80
2022-12-31T07:13:10.237Z,1.15
2022-12-31T07:15:59.211Z,1.88
2022-12-31T07:18:40.775Z,1.63
2022-12-31T07:21:16.396Z,1.40
2022-12-31T07:23:43.785Z,2.40
2022-12-31T07:26:34.891Z,6.05
2022-12-31T07:29:13.506Z,1.85
2022-12-31T07:32:13.654Z,1.83
2022-12-31T07:34:58.975Z,1.60
2022-12-31T07:37:41.738Z,1.70
2022-12-31T07:41:01.606Z,2.35
2022-12-31T07:43:42.841Z,2.28
2022-12-31T07:46:22.307Z,1.42
2022-12-31T07:48:49.246Z,3.00
2022-12-31T07:51:16.399Z,3.40
2022-12-31T07:53:42.995Z,2.95
2022-12-31T07:56:10.393Z,2.28
2022-12-31T07:58:39.969Z,2.35
2022-12-31T08:01:15.992Z,2.72
2022-12-31T08:04:22.020Z,3.15
2022-12-31T08:07:19.057Z,3.00
2022-12-31T08:10:12.568Z,1.58
2022-12-31T08:12:43.253Z,2.35
2022-12-31T08:15:15.851Z,2.13
2022-12-31T08:17:43.340Z,1.23
2022-12-31T08:20:17.440Z,2.92
2022-12-31T08:23:14.171Z,2.30
2022-12-31T08:26:06.543Z,1.77
2022-12-31T08:28:35.999Z,2.38
2022-12-31T08:31:09.241Z,1.73
2022-12-31T08:36:12.048Z,2.20
2022-12-31T08:39:08.131Z,2.17
2022-12-31T08:41:47.215Z,1.55
2022-12-31T08:44:16.419Z,1.98
2022-12-31T08:47:07.929Z,1.85
2022-12-31T08:49:35.571Z,1.65
2022-12-31T08:52:03.300Z,1.58
2022-12-31T08:54:30.156Z,1.40
2022-12-31T08:57:37.475Z,2.95
2022-12-31T09:00:11.854Z,9.82
2022-12-31T09:02:48.063Z,8.50
2022-12-31T09:05:25.237Z,6.93
2022-12-31T09:08:09.190Z,5.82
2022-12-31T09:10:56.329Z,7.70
2022-12-31T09:13:57.423Z,2.58
2022-12-31T09:16:32.327Z,2.65
2022-12-31T09:18:58.976Z,3.75
2022-12-31T09:21:25.701Z,3.20
2022-12-31T09:23:52.538Z,2.65
2022-12-31T09:26:47.015Z,2.17
2022-12-31T09:29:43.546Z,3.15
2022-12-31T09:32:48.053Z,2.78
2022-12-31T09:35:30.027Z,5.63
2022-12-31T09:38:07.924Z,3.95
2022-12-31T09:40:46.918Z,2.15
2022-12-31T09:43:41.400Z,2.90
2022-12-31T09:46:34.897Z,2.88
2022-12-31T09:49:10.179Z,2.03
2022-12-31T09:52:04.001Z,2.80
2022-12-31T09:54:43.897Z,1.77
2022-12-31T09:57:33.532Z,3.15
2022-12-31T10:00:18.680Z,2.03
2022-12-31T10:02:56.578Z,1.85
2022-12-31T10:05:59.625Z,1.55
2022-12-31T10:08:29.264Z,1.52
2022-12-31T10:11:05.185Z,2.30
2022-12-31T10:13:56.321Z,1.42
2022-12-31T10:16:49.504Z,2.58
2022-12-31T10:19:28.175Z,2.20
2022-12-31T10:22:06.955Z,2.95
2022-12-31T10:24:39.597Z,2.55
2022-12-31T10:27:16.535Z,6.28
2022-12-31T10:30:02.131Z,4.18
2022-12-31T10:33:00.644Z,2.45
2022-12-31T10:35:54.112Z,1.25
2022-12-31T10:38:20.660Z,3.00
2022-12-31T10:41:06.000Z,3.70
2022-12-31T10:43:57.193Z,3.22
2022-12-31T10:46:48.425Z,3.67
2022-12-31T10:49:50.180Z,1.30
2022-12-31T10:52:28.473Z,1.55
2022-12-31T10:55:26.012Z,1.05
2022-12-31T10:58:15.585Z,0.98
2022-12-31T11:01:00.887Z,1.70
2022-12-31T11:04:03.400Z,1.45
2022-12-31T11:07:02.913Z,1.35
2022-12-31T11:09:53.516Z,1.13
2022-12-31T11:12:32.244Z,1.40
2022-12-31T11:15:13.907Z,1.40
2022-12-31T11:18:04.403Z,1.20
2022-12-31T11:20:55.990Z,0.68
2022-12-31T11:23:41.000Z,0.75
2022-12-31T11:26:27.470Z,1.08
2022-12-31T11:28:59.249Z,0.63
2022-12-31T11:31:37.963Z,0.88
2022-12-31T11:34:13.196Z,1.05
2022-12-31T11:37:01.612Z,0.85
2022-12-31T11:39:59.815Z,2.35
2022-12-31T11:42:26.349Z,1.85
2022-12-31T11:44:59.746Z,2.47
2022-12-31T11:47:32.414Z,0.70
2022-12-31T11:50:25.976Z,0.63
2022-12-31T11:53:23.960Z,0.52
2022-12-31T11:55:53.619Z,0.45
2022-12-31T11:58:22.427Z,0.85
2022-12-31T12:01:00.408Z,0.60
2022-12-31T12:03:27.828Z,0.55
2022-12-31T12:05:57.145Z,0.90
2022-12-31T12:08:25.405Z,0.30
2022-12-31T12:11:00.381Z,0.82
2022-12-31T12:13:27.916Z,1.63
2022-12-31T12:15:58.224Z,0.80
2022-12-31T12:18:40.868Z,1.23
2022-12-31T12:21:20.977Z,0.68
2022-12-31T12:23:57.740Z,0.90
2022-12-31T12:26:32.968Z,0.90
2022-12-31T12:29:08.572Z,1.08
2022-12-31T12:31:36.256Z,1.08
2022-12-31T12:34:04.075Z,0.68
2022-12-31T12:36:31.597Z,1.30
2022-12-31T12:39:06.408Z,0.73
2022-12-31T12:41:33.348Z,0.93
2022-12-31T12:44:09.103Z,0.60
2022-12-31T12:46:47.836Z,1.58
2022-12-31T12:49:40.771Z,2.20
2022-12-31T12:52:36.588Z,1.38
2022-12-31T12:55:11.864Z,0.95
2022-12-31T12:58:00.168Z,0.95
2022-12-31T13:00:54.358Z,0.63
2022-12-31T13:06:49.533Z,0.98
2022-12-31T13:09:25.010Z,0.95
2022-12-31T13:11:58.978Z,1.05
2022-12-31T13:14:46.400Z,1.38
2022-12-31T13:17:22.112Z,0.60
2022-12-31T13:19:48.671Z,1.50
2022-12-31T13:22:42.610Z,1.10
2022-12-31T13:25:34.588Z,1.67
2022-12-31T13:28:05.394Z,1.75
2022-12-31T13:30:54.507Z,1.27
2022-12-31T13:33:27.905Z,1.45
2022-12-31T13:35:58.920Z,2.65
2022-12-31T13:38:40.673Z,1.80
2022-12-31T13:41:28.894Z,1.63
2022-12-31T13:44:01.440Z,0.90
2022-12-31T13:46:43.073Z,1.48
2022-12-31T13:49:31.614Z,2.13
2022-12-31T13:51:58.199Z,3.08
2022-12-31T13:54:36.071Z,2.08
2022-12-31T13:57:23.590Z,2.65
2022-12-31T13:59:57.978Z,1.40
2022-12-31T14:02:48.019Z,1.17
2022-12-31T14:05:23.336Z,1.50
2022-12-31T14:07:57.144Z,2.30
2022-12-31T14:10:52.881Z,1.27
2022-12-31T14:13:34.649Z,1.88
2022-12-31T14:16:01.595Z,2.50
2022-12-31T14:18:46.023Z,2.72
2022-12-31T14:21:40.687Z,3.97
2022-12-31T14:24:21.540Z,2.67
2022-12-31T14:26:52.672Z,3.58
2022-12-31T14:29:28.504Z,2.10
2022-12-31T14:32:08.236Z,2.17
2022-12-31T14:34:50.012Z,2.70
2022-12-31T14:37:54.017Z,3.10
2022-12-31T14:40:49.327Z,3.05
2022-12-31T14:44:00.829Z,2.45
2022-12-31T14:46:56.292Z,3.03
2022-12-31T14:49:56.709Z,1.60
2022-12-31T14:52:35.224Z,1.70
2022-12-31T14:55:51.393Z,2.72
2022-12-31T14:58:29.524Z,2.47
2022-12-31T15:01:04.487Z,1.90
2022-12-31T15:03:31.120Z,2.47
2022-12-31T15:06:00.350Z,2.03
2022-12-31T15:08:51.845Z,1.67
2022-12-31T15:11:23.860Z,2.13
2022-12-31T15:14:16.776Z,1.88
2022-12-31T15:16:43.382Z,2.08
2022-12-31T15:19:18.926Z,3.17
2022-12-31T15:22:00.457Z,2.15
2022-12-31T15:24:30.851Z,1.95
2022-12-31T15:27:00.920Z,2.30
2022-12-31T15:29:45.747Z,3.42
2022-12-31T15:32:20.214Z,2.45
2022-12-31T15:34:47.023Z,4.30
2022-12-31T15:37:35.400Z,6.47
2022-12-31T15:40:24.996Z,4.20
2022-12-31T15:43:13.907Z,6.60
2022-12-31T15:45:42.544Z,4.97
2022-12-31T15:48:19.805Z,6.15
2022-12-31T15:50:47.532Z,7.38
2022-12-31T15:53:42.733Z,4.18
2022-12-31T15:56:18.554Z,5.20
2022-12-31T15:58:47.458Z,4.13
2022-12-31T16:01:44.551Z,4.32
2022-12-31T16:04:21.808Z,4.07
2022-12-31T16:06:51.222Z,20.70
2022-12-31T16:09:27.538Z,6.97
2022-12-31T16:11:56.139Z,6.30
2022-12-31T16:14:38.543Z,4.97
2022-12-31T16:17:06.310Z,6.45
2022-12-31T16:19:51.988Z,5.25
2022-12-31T16:22:36.424Z,5.65
2022-12-31T16:25:30.089Z,6.07
2022-12-31T16:27:53.396Z,6.72
2022-12-31T16:30:27.004Z,5.45
2022-12-31T16:32:58.026Z,3.42
2022-12-31T16:35:32.123Z,4.00
2022-12-31T16:38:08.043Z,4.93
2022-12-31T16:40:35.464Z,6.03
2022-12-31T16:43:02.120Z,5.32
2022-12-31T16:45:36.974Z,5.60
2022-12-31T16:48:17.283Z,4.65
2022-12-31T16:50:50.805Z,5.63
2022-12-31T16:53:21.076Z,5.85
2022-12-31T16:55:57.153Z,4.45
2022-12-31T16:58:36.007Z,4.65
2022-12-31T17:01:23.577Z,5.13
2022-12-31T17:03:58.589Z,7.57
2022-12-31T17:06:28.176Z,5.60
2022-12-31T17:09:00.757Z,5.82
2022-12-31T17:11:33.237Z,5.07
2022-12-31T17:14:06.163Z,5.38
2022-12-31T17:16:34.911Z,6.30
2022-12-31T17:19:01.945Z,5.20
2022-12-31T17:21:30.906Z,4.55
2022-12-31T17:24:04.728Z,5.32
2022-12-31T17:26:33.577Z,4.43
2022-12-31T17:29:02.155Z,5.20
2022-12-31T17:31:33.636Z,4.68
2022-12-31T17:34:06.428Z,5.22
2022-12-31T17:36:33.153Z,5.63
2022-12-31T17:39:19.395Z,5.82
2022-12-31T17:41:49.648Z,9.25
2022-12-31T17:44:21.615Z,9.82
2022-12-31T17:46:50.252Z,9.15
2022-12-31T17:49:21.838Z,8.00
2022-12-31T17:51:48.489Z,6.95
2022-12-31T17:54:17.094Z,5.40
2022-12-31T17:56:44.812Z,8.07
2022-12-31T17:59:37.703Z,5.60
2022-12-31T18:02:05.452Z,5.80
2022-12-31T18:04:32.127Z,9.10
2022-12-31T18:06:58.738Z,8.65
2022-12-31T18:09:25.384Z,6.93
2022-12-31T18:11:55.516Z,10.00
2022-12-31T18:14:23.528Z,5.70
2022-12-31T18:16:50.132Z,7.28
2022-12-31T18:19:45.916Z,7.45
2022-12-31T18:22:03.473Z,7.57
2022-12-31T18:24:30.063Z,7.07
2022-12-31T18:26:56.718Z,5.00
2022-12-31T18:29:23.406Z,7.43
2022-12-31T18:31:50.811Z,8.57
2022-12-31T18:34:18.523Z,7.75
2022-12-31T18:36:45.607Z,6.88
2022-12-31T18:39:12.269Z,9.73
2022-12-31T18:41:49.662Z,8.63
2022-12-31T18:44:16.908Z,8.23
2022-12-31T18:46:43.516Z,11.40
2022-12-31T18:49:10.140Z,13.07
2022-12-31T18:51:36.750Z,11.18
2022-12-31T18:54:04.751Z,10.77
2022-12-31T18:56:31.500Z,10.90
2022-12-31T18:58:59.760Z,12.45
2022-12-31T19:01:29.257Z,12.13
2022-12-31T19:03:58.540Z,10.82
2022-12-31T19:06:25.956Z,12.13
2022-12-31T19:08:53.108Z,17.30
2022-12-31T19:11:20.942Z,13.18
2022-12-31T19:13:48.277Z,10.25
2022-12-31T19:16:15.309Z,11.80
2022-12-31T19:18:42.409Z,10.90
2022-12-31T19:21:20.735Z,11.05
2022-12-31T19:23:47.357Z,9.18
2022-12-31T19:26:15.579Z,17.40
2022-12-31T19:28:42.940Z,17.35
2022-12-31T19:31:09.626Z,19.77
2022-12-31T19:33:36.592Z,15.85
2022-12-31T19:36:04.627Z,19.73
2022-12-31T19:38:32.595Z,14.45
2022-12-31T19:40:59.588Z,14.05
2022-12-31T19:43:26.229Z,13.45
2022-12-31T19:45:53.106Z,11.07
2022-12-31T19:48:27.184Z,12.38
2022-12-31T19:50:58.841Z,12.02
2022-12-31T19:53:27.566Z,33.38
2022-12-31T19:55:54.462Z,14.88
2022-12-31T19:58:25.412Z,18.75
2022-12-31T20:01:02.025Z,10.57
2022-12-31T20:03:31.205Z,12.05
2022-12-31T20:06:07.292Z,18.10
2022-12-31T20:08:35.457Z,13.80
2022-12-31T20:11:12.773Z,18.67
2022-12-31T20:13:40.990Z,15.90
2022-12-31T20:16:10.037Z,14.68
2022-12-31T20:18:38.158Z,12.27
2022-12-31T20:21:09.146Z,10.10
2022-12-31T20:23:35.734Z,9.25
2022-12-31T20:26:02.679Z,9.82
2022-12-31T20:28:29.930Z,9.95
2022-12-31T20:30:56.953Z,11.45
2022-12-31T20:33:23.983Z,12.30
2022-12-31T20:35:50.741Z,10.73
2022-12-31T20:38:17.360Z,10.75
2022-12-31T20:40:46.926Z,10.32
2022-12-31T20:43:14.199Z,11.07
2022-12-31T20:45:41.778Z,12.00
2022-12-31T20:48:08.600Z,11.90
2022-12-31T20:50:35.421Z,12.95
2022-12-31T20:53:02.529Z,13.35
2022-12-31T20:55:30.975Z,16.05
2022-12-31T20:57:57.614Z,14.30
2022-12-31T21:00:24.291Z,15.55
2022-12-31T21:03:00.411Z,14.85
2022-12-31T21:05:31.252Z,14.13
2022-12-31T21:07:58.482Z,13.70
2022-12-31T21:10:25.156Z,13.73
2022-12-31T21:12:54.535Z,18.73
2022-12-31T21:15:21.805Z,81.03
2022-12-31T21:17:48.599Z,21.88
2022-12-31T21:20:15.295Z,16.20
2022-12-31T21:22:41.962Z,16.08
2022-12-31T21:25:10.588Z,14.43
2022-12-31T21:27:37.339Z,15.90
2022-12-31T21:30:20.752Z,14.02
2022-12-31T21:32:48.152Z,14.07
2022-12-31T21:38:02.444Z,18.60
2022-12-31T21:40:30.316Z,17.95
2022-12-31T21:42:57.133Z,21.05
2022-12-31T21:45:24.653Z,19.83
2022-12-31T21:48:10.033Z,34.50
2022-12-31T21:50:36.738Z,23.15
2022-12-31T21:53:03.902Z,19.02
2022-12-31T21:55:48.944Z,18.60
2022-12-31T21:58:32.036Z,23.90
2022-12-31T22:01:18.443Z,18.95
2022-12-31T22:03:45.560Z,10.98
2022-12-31T22:06:16.171Z,16.42
2022-12-31T22:08:44.851Z,17.38
2022-12-31T22:11:13.164Z,17.63
2022-12-31T22:13:40.363Z,13.48
2022-12-31T22:16:07.977Z,16.55
2022-12-31T22:18:38.940Z,23.05
2022-12-31T22:21:23.059Z,21.92
2022-12-31T22:23:52.493Z,15.43
2022-12-31T22:26:21.971Z,11.73
2022-12-31T22:28:49.317Z,18.17
2022-12-31T22:31:18.668Z,99.68
2022-12-31T22:33:45.962Z,25.33
2022-12-31T22:36:18.190Z,9.52
2022-12-31T22:38:44.965Z,7.10
2022-12-31T22:41:17.774Z,8.30
2022-12-31T22:43:47.657Z,14.95
2022-12-31T22:46:20.021Z,29.15
2022-12-31T22:48:47.205Z,11.93
2022-12-31T22:51:14.965Z,17.90
2022-12-31T22:53:43.484Z,17.50
2022-12-31T22:56:12.509Z,9.18
2022-12-31T22:58:39.163Z,17.40
2022-12-31T23:01:16.950Z,12.20
2022-12-31T23:03:43.831Z,15.75
2022-12-31T23:06:10.747Z,31.27
2022-12-31T23:08:37.387Z,20.17
2022-12-31T23:11:09.512Z,18.08
2022-12-31T23:13:59.861Z,13.30
2022-12-31T23:16:48.046Z,14.45
2022-12-31T23:19:34.113Z,16.42
2022-12-31T23:22:19.836Z,27.92
2022-12-31T23:24:46.477Z,26.77
2022-12-31T23:27:13.351Z,31.23
2022-12-31T23:29:46.628Z,28.55
2022-12-31T23:32:15.843Z,40.15
2022-12-31T23:34:43.183Z,52.22
2022-12-31T23:37:10.093Z,55.88
2022-12-31T23:39:36.748Z,47.88
2022-12-31T23:42:03.540Z,42.10
2022-12-31T23:44:30.140Z,39.25
2022-12-31T23:46:56.920Z,44.28
2022-12-31T23:49:23.806Z,44.15
2022-12-31T23:51:50.441Z,46.25
2022-12-31T23:54:17.905Z,35.53
2022-12-31T23:56:44.765Z,38.10
2022-12-31T23:59:12.768Z,49.72
